Time;durP1;ratioP1;P1;durP2;ratioP2;P2;SDS_P1;SDS_P2;PMS_P1;PMS_P2;Temp;Humidity;BMP_temperature;BMP_pressure;BME280_temperature;BME280_humidity;BME280_pressure;Samples;Min_cycle;Max_cycle;Signal;HPM_P1;HPM_P2
2022/07/01 00:00:11;;;;;;;1046.20;952.30;;;23.00;99.90;;;;;;5008639;28;20195;-61
2022/07/01 00:02:37;;;;;;;1064.13;969.53;;;23.20;99.90;;;;;;5008483;28;20196;-60
2022/07/01 00:05:02;;;;;;;1046.73;953.03;;;23.10;99.90;;;;;;5008614;28;20205;-61
2022/07/01 00:07:28;;;;;;;1070.67;976.23;;;23.10;99.90;;;;;;5009969;28;20724;-62
2022/07/01 00:09:53;;;;;;;1058.20;963.90;;;23.10;99.90;;;;;;5007179;28;20226;-62
2022/07/01 00:12:19;;;;;;;1045.47;951.33;;;23.00;99.90;;;;;;5008344;28;20208;-62
2022/07/01 00:14:44;;;;;;;1041.43;947.43;;;23.00;99.90;;;;;;5010765;28;20230;-63
2022/07/01 00:17:10;;;;;;;1040.13;946.57;;;23.00;99.90;;;;;;5009186;28;20192;-62
2022/07/01 00:19:35;;;;;;;1076.73;981.90;;;23.10;99.90;;;;;;5010013;28;20265;-63
2022/07/01 00:22:01;;;;;;;1064.43;970.17;;;23.00;99.90;;;;;;5013221;28;20188;-62
2022/07/01 00:24:27;;;;;;;1059.10;964.80;;;23.10;99.90;;;;;;5014076;28;20215;-63
2022/07/01 00:26:53;;;;;;;1065.13;970.33;;;23.00;99.90;;;;;;5019743;28;20192;-64
2022/07/01 00:29:19;;;;;;;1060.10;965.63;;;23.00;99.90;;;;;;5016994;28;20238;-62
2022/07/01 00:31:44;;;;;;;1047.43;953.33;;;23.00;99.90;;;;;;5018530;28;20254;-62
2022/07/01 00:34:10;;;;;;;1073.93;979.27;;;23.10;99.90;;;;;;5016492;28;20196;-62
2022/07/01 00:36:35;;;;;;;1058.50;964.23;;;23.10;99.90;;;;;;5011025;28;20641;-63
2022/07/01 00:39:01;;;;;;;1046.47;952.77;;;22.90;99.90;;;;;;5007799;28;20250;-62
2022/07/01 00:41:27;;;;;;;1050.53;956.47;;;22.80;99.90;;;;;;5008487;28;20196;-61
2022/07/01 00:43:53;;;;;;;1053.63;959.60;;;22.80;99.90;;;;;;5010689;28;20196;-62
2022/07/01 00:46:19;;;;;;;1047.20;953.33;;;22.70;99.90;;;;;;5010054;28;20589;-61
2022/07/01 00:48:45;;;;;;;1064.93;967.83;;;22.70;99.90;;;;;;5025183;28;20215;-61
2022/07/01 00:51:10;;;;;;;1064.37;970.03;;;22.70;99.90;;;;;;5010286;28;20742;-62
2022/07/01 00:53:36;;;;;;;1053.73;957.30;;;22.70;99.90;;;;;;5009112;28;20214;-62
2022/07/01 00:56:02;;;;;;;1042.47;948.40;;;22.70;99.90;;;;;;5008159;28;20248;-62
2022/07/01 00:58:29;;;;;;;1057.67;962.93;;;22.60;99.90;;;;;;5009565;28;20283;-62
2022/07/01 01:00:56;;;;;;;1024.93;931.63;;;22.60;99.90;;;;;;5013130;28;20206;-62
2022/07/01 01:03:22;;;;;;;1018.20;924.87;;;22.60;99.90;;;;;;5027344;28;20210;-62
2022/07/01 01:05:49;;;;;;;1057.20;962.77;;;22.70;99.90;;;;;;5009531;28;20224;-62
2022/07/01 01:08:15;;;;;;;1038.70;945.27;;;22.60;99.90;;;;;;5019738;28;20228;-62
2022/07/01 01:10:41;;;;;;;1015.73;922.83;;;22.60;99.90;;;;;;5008396;28;20265;-62
2022/07/01 01:13:08;;;;;;;1014.37;921.37;;;22.60;99.90;;;;;;5018196;28;20227;-62
2022/07/01 01:15:34;;;;;;;1043.33;949.17;;;22.50;99.90;;;;;;5009934;28;20625;-63
2022/07/01 01:18:00;;;;;;;1038.53;944.83;;;22.50;99.90;;;;;;5010325;28;20220;-62
2022/07/01 01:20:25;;;;;;;1019.97;926.27;;;22.50;99.90;;;;;;5009605;28;20277;-63
2022/07/01 01:22:51;;;;;;;1038.13;944.57;;;22.50;99.90;;;;;;5026975;28;20278;-62
2022/07/01 01:25:17;;;;;;;1036.10;942.30;;;22.40;99.90;;;;;;5011497;28;20219;-62
2022/07/01 01:27:43;;;;;;;1020.43;927.10;;;22.50;99.90;;;;;;5026196;28;20237;-62
2022/07/01 01:30:13;;;;;;;1061.60;966.70;;;22.60;99.90;;;;;;5016540;28;20655;-62
2022/07/01 01:32:40;;;;;;;1047.20;952.97;;;22.60;99.90;;;;;;5024188;28;20262;-62
2022/07/01 01:35:07;;;;;;;1042.93;948.93;;;22.40;99.90;;;;;;5012453;28;20686;-62
2022/07/01 01:37:33;;;;;;;1059.83;964.67;;;22.30;99.90;;;;;;5026228;28;20277;-62
2022/07/01 01:39:59;;;;;;;1069.17;974.20;;;22.30;99.90;;;;;;5014092;28;20300;-62
2022/07/01 01:42:24;;;;;;;1043.60;949.57;;;22.40;99.90;;;;;;5022768;28;20283;-62
2022/07/01 01:44:50;;;;;;;1053.63;959.33;;;22.50;99.90;;;;;;5014640;28;20250;-62
2022/07/01 01:47:15;;;;;;;1052.67;958.13;;;22.50;99.90;;;;;;5026352;28;20250;-63
2022/07/01 01:49:41;;;;;;;1058.63;963.03;;;22.50;99.90;;;;;;5014398;28;20211;-62
2022/07/01 01:52:06;;;;;;;1075.23;977.87;;;22.50;99.90;;;;;;5022156;28;20222;-62
2022/07/01 01:54:32;;;;;;;1056.83;962.40;;;22.30;99.90;;;;;;5017701;28;20200;-61
2022/07/01 01:56:58;;;;;;;1030.53;936.77;;;22.20;99.90;;;;;;5022923;28;20196;-62
2022/07/01 01:59:23;;;;;;;1035.13;941.53;;;22.30;99.90;;;;;;5023241;28;20685;-62
2022/07/01 02:01:49;;;;;;;1028.80;935.37;;;22.30;99.90;;;;;;5009536;28;20187;-62
2022/07/01 02:04:14;;;;;;;1053.00;958.37;;;22.40;99.90;;;;;;5024163;28;20199;-62
2022/07/01 02:06:42;;;;;;;1030.43;936.90;;;22.30;99.90;;;;;;5015366;28;20188;-62
2022/07/01 02:09:08;;;;;;;1023.40;929.87;;;22.30;99.90;;;;;;5024179;28;20318;-62
2022/07/01 02:11:34;;;;;;;1020.37;927.07;;;22.30;99.90;;;;;;5026189;28;20262;-62
2022/07/01 02:14:00;;;;;;;1074.13;976.43;;;22.40;99.90;;;;;;5024520;28;20306;-62
2022/07/01 02:16:26;;;;;;;1044.83;950.67;;;22.40;99.90;;;;;;5016100;28;20287;-62
2022/07/01 02:18:51;;;;;;;1089.50;990.90;;;22.30;99.90;;;;;;5016751;28;20214;-62
2022/07/01 02:21:17;;;;;;;1011.47;918.60;;;22.30;99.90;;;;;;5018545;28;20192;-62
2022/07/01 02:23:42;;;;;;;1025.77;932.20;;;22.30;99.90;;;;;;5025497;28;20568;-61
2022/07/01 02:26:07;;;;;;;1035.90;942.00;;;22.40;99.90;;;;;;5005006;28;20200;-61
2022/07/01 02:28:33;;;;;;;1036.97;943.07;;;22.40;99.90;;;;;;5025364;28;20198;-61
2022/07/01 02:30:59;;;;;;;1016.33;923.40;;;22.40;99.90;;;;;;5016011;28;20302;-61
2022/07/01 02:33:24;;;;;;;1011.77;918.77;;;22.30;99.90;;;;;;5016617;28;20219;-61
2022/07/01 02:35:50;;;;;;;1055.07;960.47;;;22.30;99.90;;;;;;5015332;28;20310;-61
2022/07/01 02:38:15;;;;;;;1031.13;937.57;;;22.30;99.90;;;;;;5025564;28;20206;-61
2022/07/01 02:40:41;;;;;;;1024.10;930.53;;;22.20;99.90;;;;;;5009023;28;20204;-61
2022/07/01 02:43:07;;;;;;;1030.20;936.30;;;22.20;99.90;;;;;;5025155;28;20192;-63
2022/07/01 02:45:33;;;;;;;1055.87;960.87;;;22.20;99.90;;;;;;5016998;28;20471;-62
2022/07/01 02:47:58;;;;;;;1033.03;938.93;;;22.20;99.90;;;;;;5025735;28;20734;-60
2022/07/01 02:50:23;;;;;;;1036.77;942.40;;;22.20;99.90;;;;;;5011499;28;20200;-61
2022/07/01 02:52:49;;;;;;;1033.23;939.10;;;22.20;99.90;;;;;;5024851;28;20211;-61
2022/07/01 02:55:15;;;;;;;1045.57;950.50;;;22.10;99.90;;;;;;5012101;28;20256;-61
2022/07/01 02:57:42;;;;;;;1023.77;930.17;;;22.10;99.90;;;;;;5021897;28;20287;-61
2022/07/01 03:00:11;;;;;;;1039.37;944.83;;;22.00;99.90;;;;;;5013033;28;20302;-62
2022/07/01 03:02:36;;;;;;;1035.37;941.57;;;22.00;99.90;;;;;;5025422;28;20203;-62
2022/07/01 03:05:03;;;;;;;1025.43;931.70;;;22.00;99.90;;;;;;5023786;28;20253;-60
2022/07/01 03:07:28;;;;;;;1043.50;949.40;;;22.10;99.90;;;;;;5025354;28;20195;-62
2022/07/01 03:09:54;;;;;;;1029.27;935.20;;;22.10;99.90;;;;;;5022783;28;20222;-62
2022/07/01 03:12:29;;;;;;;1051.23;955.20;;;22.10;99.90;;;;;;5025012;28;20227;-62
2022/07/01 03:14:57;;;;;;;1076.47;977.57;;;22.30;99.90;;;;;;5008402;28;20281;-62
2022/07/01 03:17:24;;;;;;;1086.33;987.87;;;22.30;99.90;;;;;;5024170;28;20203;-62
2022/07/01 03:19:51;;;;;;;1044.43;949.70;;;22.30;99.90;;;;;;5023084;28;20198;-64
2022/07/01 03:22:18;;;;;;;1023.33;929.63;;;22.40;99.90;;;;;;4992545;28;20191;-59
2022/07/01 03:24:43;;;;;;;1049.57;954.73;;;22.40;99.90;;;;;;5022975;28;20222;-61
2022/07/01 03:27:09;;;;;;;1022.30;929.17;;;22.30;99.90;;;;;;5015458;28;20194;-61
2022/07/01 03:29:34;;;;;;;1039.53;945.27;;;22.30;99.90;;;;;;5018507;28;20208;-62
2022/07/01 03:32:00;;;;;;;1067.20;971.10;;;22.30;99.90;;;;;;5007407;28;20482;-62
2022/07/01 03:34:25;;;;;;;1033.43;939.87;;;22.20;99.90;;;;;;5019557;28;20302;-62
2022/07/01 03:36:51;;;;;;;1043.80;949.80;;;22.30;99.90;;;;;;5013722;28;20195;-62
2022/07/01 03:39:17;;;;;;;1049.50;953.00;;;22.30;99.90;;;;;;5022014;28;20216;-61
2022/07/01 03:41:42;;;;;;;1028.23;934.43;;;22.40;99.90;;;;;;5013603;28;20647;-61
2022/07/01 03:44:07;;;;;;;1070.40;972.97;;;22.40;99.90;;;;;;5018322;28;20199;-60
2022/07/01 03:46:35;;;;;;;1038.23;944.13;;;22.30;99.90;;;;;;5010896;28;20180;-61
2022/07/01 03:49:01;;;;;;;1023.70;929.90;;;22.30;99.90;;;;;;5024646;28;20628;-61
2022/07/01 03:51:26;;;;;;;1030.27;936.50;;;22.30;99.90;;;;;;5003483;28;20227;-61
2022/07/01 03:56:36;;;;;;;1035.70;942.10;;;22.30;99.90;;;;;;4998025;28;20238;-62
2022/07/01 03:59:02;;;;;;;1017.87;924.80;;;22.30;99.90;;;;;;5022933;28;20192;-62
2022/07/01 04:01:27;;;;;;;1019.20;925.63;;;22.40;99.90;;;;;;5013116;28;20196;-62
2022/07/01 04:03:53;;;;;;;1066.30;971.47;;;22.30;99.90;;;;;;5019615;28;20193;-62
2022/07/01 04:06:19;;;;;;;1056.93;962.20;;;22.40;99.90;;;;;;5008882;28;20797;-62
2022/07/01 04:08:46;;;;;;;1069.80;975.37;;;22.30;99.90;;;;;;5024459;28;20196;-61
2022/07/01 04:11:12;;;;;;;1059.67;965.53;;;22.40;99.90;;;;;;5008768;28;20199;-61
2022/07/01 04:13:38;;;;;;;1055.80;961.53;;;22.40;99.90;;;;;;5024223;28;20986;-61
2022/07/01 04:16:04;;;;;;;1042.60;948.83;;;22.40;99.90;;;;;;5008927;28;20206;-60
2022/07/01 04:18:29;;;;;;;1027.87;934.23;;;22.40;99.90;;;;;;5024264;28;20301;-61
2022/07/01 04:23:39;;;;;;;1020.40;927.47;;;22.50;99.90;;;;;;5014461;28;20217;-63
2022/07/01 04:26:05;;;;;;;1021.73;928.67;;;22.50;99.90;;;;;;5011733;28;20671;-63
2022/07/01 04:28:30;;;;;;;1049.83;955.33;;;22.50;99.90;;;;;;5023967;28;20550;-61
2022/07/01 04:30:56;;;;;;;1068.00;972.93;;;22.50;99.90;;;;;;5020621;28;20239;-63
2022/07/01 04:33:21;;;;;;;1020.87;927.73;;;22.50;99.90;;;;;;5026987;28;20697;-61
2022/07/01 04:35:47;;;;;;;1054.10;960.10;;;22.70;99.90;;;;;;5012927;28;20196;-61
2022/07/01 04:38:12;;;;;;;1022.73;929.47;;;22.70;99.90;;;;;;5027409;28;20290;-61
2022/07/01 04:40:38;;;;;;;1034.47;940.63;;;22.80;99.90;;;;;;5014280;28;20353;-61
2022/07/01 04:43:03;;;;;;;1032.83;939.23;;;22.80;99.90;;;;;;5024921;28;20202;-61
2022/07/01 04:45:28;;;;;;;1071.93;976.37;;;22.90;99.90;;;;;;5014800;28;20200;-61
2022/07/01 04:47:54;;;;;;;1063.87;968.57;;;22.90;99.90;;;;;;5026633;28;20192;-60
2022/07/01 04:50:19;;;;;;;1082.63;986.70;;;23.00;99.90;;;;;;5025346;28;20203;-61
2022/07/01 04:52:45;;;;;;;1034.03;939.87;;;23.00;99.90;;;;;;5026587;28;20272;-61
2022/07/01 04:55:10;;;;;;;1062.63;967.77;;;22.90;99.90;;;;;;5025255;28;20258;-62
2022/07/01 04:57:36;;;;;;;1066.13;971.33;;;23.10;99.90;;;;;;5010775;28;20176;-61
2022/07/01 05:00:02;;;;;;;1056.70;962.30;;;23.10;99.90;;;;;;5023960;28;20357;-61
2022/07/01 05:02:28;;;;;;;1067.50;972.20;;;23.20;99.90;;;;;;5017501;28;20223;-61
2022/07/01 05:04:54;;;;;;;1094.23;996.63;;;23.30;99.90;;;;;;5020473;28;20227;-61
2022/07/01 05:07:28;;;;;;;1058.33;964.00;;;23.30;99.90;;;;;;5023748;28;20210;-62
2022/07/01 05:09:55;;;;;;;1034.13;940.63;;;23.40;99.90;;;;;;5005511;28;20207;-63
2022/07/01 05:12:20;;;;;;;1055.80;961.17;;;23.40;99.90;;;;;;5010872;28;20277;-63
2022/07/01 05:14:46;;;;;;;1049.40;955.57;;;23.60;99.90;;;;;;5024978;28;20207;-64
2022/07/01 05:17:11;;;;;;;1070.23;975.73;;;23.80;99.90;;;;;;5025482;28;20203;-62
2022/07/01 05:22:21;;;;;;;1074.07;979.13;;;24.20;99.90;;;;;;5014640;28;20192;-63
2022/07/01 05:24:46;;;;;;;1087.40;992.10;;;24.60;99.90;;;;;;5024980;28;20203;-63
2022/07/01 05:27:12;;;;;;;1073.00;978.13;;;24.70;99.90;;;;;;5015563;28;20550;-63
2022/07/01 05:29:37;;;;;;;1126.10;999.90;;;24.50;99.90;;;;;;5024457;28;20197;-63
2022/07/01 05:32:03;;;;;;;1084.27;989.07;;;24.30;99.90;;;;;;5017074;28;22068;-63
2022/07/01 05:34:29;;;;;;;1105.10;997.83;;;24.30;99.90;;;;;;5023069;28;20255;-63
2022/07/01 05:36:54;;;;;;;1074.90;979.87;;;24.30;99.90;;;;;;5018117;28;20258;-61
2022/07/01 05:39:20;;;;;;;1106.93;999.90;;;24.40;99.90;;;;;;5022442;28;20196;-61
2022/07/01 05:41:45;;;;;;;1092.20;996.03;;;24.40;99.90;;;;;;5015629;28;20208;-61
2022/07/01 05:44:11;;;;;;;1086.10;990.10;;;24.20;99.90;;;;;;5026597;28;20684;-61
2022/07/01 05:46:36;;;;;;;1083.30;988.50;;;24.10;99.90;;;;;;5013564;28;21021;-62
2022/07/01 05:49:02;;;;;;;1083.97;988.67;;;24.20;99.90;;;;;;5026535;28;20240;-61
2022/07/01 05:51:28;;;;;;;1098.17;997.97;;;24.50;99.90;;;;;;5009351;28;20641;-61
2022/07/01 05:53:54;;;;;;;1100.60;999.10;;;24.40;99.90;;;;;;5026542;28;20561;-61
2022/07/01 05:56:20;;;;;;;1091.90;995.90;;;24.40;99.90;;;;;;5009324;28;20239;-61
2022/07/01 05:58:45;;;;;;;1100.17;999.00;;;24.70;99.90;;;;;;5026100;28;20200;-62
2022/07/01 06:01:11;;;;;;;1086.83;991.37;;;24.60;99.90;;;;;;5013444;28;20215;-62
2022/07/01 06:03:37;;;;;;;1103.40;999.90;;;24.40;99.90;;;;;;5026059;28;20302;-62
2022/07/01 06:06:02;;;;;;;1087.97;992.43;;;24.30;99.90;;;;;;5012203;28;20204;-62
2022/07/01 06:08:28;;;;;;;1099.07;999.47;;;24.40;99.90;;;;;;5024136;28;20207;-62
2022/07/01 06:10:53;;;;;;;1088.00;991.87;;;24.20;99.90;;;;;;5013142;28;20624;-62
2022/07/01 06:13:18;;;;;;;1083.10;987.23;;;24.30;99.90;;;;;;5025099;28;20236;-62
2022/07/01 06:15:44;;;;;;;1096.90;998.40;;;24.30;99.90;;;;;;5013641;28;20204;-62
2022/07/01 06:18:10;;;;;;;1097.63;998.37;;;24.20;99.90;;;;;;5022031;28;20184;-62
2022/07/01 06:20:35;;;;;;;1089.70;994.13;;;24.40;99.90;;;;;;5017356;28;20227;-62
2022/07/01 06:23:00;;;;;;;1105.27;999.90;;;24.40;99.90;;;;;;5023513;28;20241;-62
2022/07/01 06:25:26;;;;;;;1104.20;999.90;;;24.20;99.90;;;;;;5016272;28;20227;-62
2022/07/01 06:27:51;;;;;;;1089.13;993.27;;;24.20;99.90;;;;;;5014576;28;20932;-62
2022/07/01 06:30:17;;;;;;;1114.47;999.90;;;24.40;99.90;;;;;;5017654;28;20208;-62
2022/07/01 06:32:42;;;;;;;1084.13;988.50;;;24.30;99.90;;;;;;5016974;28;20216;-62
2022/07/01 06:35:08;;;;;;;1078.43;982.93;;;24.20;99.90;;;;;;5020078;28;20730;-62
2022/07/01 06:37:35;;;;;;;1085.83;990.40;;;24.30;99.90;;;;;;5014561;28;20190;-61
2022/07/01 06:40:05;;;;;;;1083.07;987.40;;;24.20;99.90;;;;;;5020150;28;20200;-62
2022/07/01 06:42:32;;;;;;;1073.53;977.60;;;24.20;99.90;;;;;;5015439;28;20266;-62
2022/07/01 06:44:57;;;;;;;1093.40;995.03;;;24.30;99.90;;;;;;5021317;28;20187;-62
2022/07/01 06:47:23;;;;;;;1092.20;995.93;;;24.40;99.90;;;;;;5018700;28;20427;-62
2022/07/01 06:49:48;;;;;;;1081.93;984.07;;;24.60;99.90;;;;;;5022821;28;20233;-63
2022/07/01 06:52:14;;;;;;;1112.87;999.90;;;25.10;99.90;;;;;;5014094;28;20583;-63
2022/07/01 06:54:39;;;;;;;1141.97;999.90;;;25.60;99.90;;;;;;5024439;28;20698;-62
2022/07/01 06:57:06;;;;;;;1119.80;999.90;;;25.70;99.90;;;;;;5004070;28;20213;-63
2022/07/01 06:59:32;;;;;;;1140.37;999.90;;;25.90;99.90;;;;;;5016692;28;20189;-65
2022/07/01 07:01:57;;;;;;;1171.27;999.90;;;25.90;99.90;;;;;;5003336;28;20203;-65
2022/07/01 07:04:23;;;;;;;1119.67;999.90;;;25.90;99.90;;;;;;5009003;28;20207;-64
2022/07/01 07:06:48;;;;;;;1118.50;999.90;;;25.90;99.90;;;;;;5000101;28;20951;-64
2022/07/01 07:09:14;;;;;;;1133.47;999.90;;;25.90;99.90;;;;;;5005800;28;20241;-64
2022/07/01 07:11:39;;;;;;;1122.10;999.90;;;26.10;99.90;;;;;;5007262;28;20295;-64
2022/07/01 07:14:05;;;;;;;1120.70;999.90;;;25.80;99.90;;;;;;5022596;28;20857;-64
2022/07/01 07:16:30;;;;;;;1119.00;999.90;;;25.70;99.90;;;;;;5023878;28;20192;-64
2022/07/01 07:18:56;;;;;;;1084.77;989.97;;;25.60;99.90;;;;;;5019909;28;20217;-65
2022/07/01 07:21:21;;;;;;;1099.07;999.27;;;25.50;99.90;;;;;;5025318;28;20188;-65
2022/07/01 07:23:47;;;;;;;1105.57;999.90;;;25.50;99.90;;;;;;5015118;28;20233;-64
2022/07/01 07:26:13;;;;;;;1119.03;999.90;;;25.70;99.90;;;;;;5018274;28;20701;-66
2022/07/01 07:28:38;;;;;;;1112.23;999.90;;;26.00;99.90;;;;;;5022777;28;20212;-65
2022/07/01 07:31:04;;;;;;;1120.07;999.90;;;26.10;99.90;;;;;;5025307;28;20659;-65
2022/07/01 07:33:30;;;;;;;1110.97;999.90;;;26.00;99.90;;;;;;5013593;28;20223;-65
2022/07/01 07:35:56;;;;;;;1114.37;999.90;;;26.00;99.90;;;;;;5022157;28;20192;-65
2022/07/01 07:38:22;;;;;;;1125.83;999.90;;;26.00;99.90;;;;;;5004536;28;20201;-65
2022/07/01 07:40:47;;;;;;;1133.23;999.90;;;26.00;99.90;;;;;;5024424;28;20227;-65
2022/07/01 07:43:13;;;;;;;1153.50;999.90;;;26.20;99.90;;;;;;5013151;28;20255;-66
2022/07/01 07:45:39;;;;;;;1146.93;999.90;;;26.40;99.90;;;;;;5014606;28;20178;-64
2022/07/01 07:48:06;;;;;;;1118.63;999.90;;;26.50;99.90;;;;;;5016785;28;20204;-65
2022/07/01 07:50:32;;;;;;;1112.50;999.90;;;26.60;99.90;;;;;;5017695;28;20559;-65
2022/07/01 07:52:58;;;;;;;1112.07;999.90;;;26.80;99.90;;;;;;5022158;28;20757;-65
2022/07/01 07:55:24;;;;;;;1110.33;999.90;;;26.70;99.90;;;;;;5012876;28;20272;-66
2022/07/01 07:57:49;;;;;;;1128.20;999.90;;;26.90;99.90;;;;;;5019085;28;20190;-65
2022/07/01 08:00:15;;;;;;;1135.80;999.90;;;26.60;99.90;;;;;;5012435;28;20195;-66
2022/07/01 08:02:42;;;;;;;1153.67;999.90;;;26.70;99.90;;;;;;5022784;28;20817;-65
2022/07/01 08:05:08;;;;;;;1142.60;999.90;;;26.40;99.90;;;;;;5015838;28;20302;-65
2022/07/01 08:07:38;;;;;;;1175.20;999.90;;;26.40;99.90;;;;;;5024651;28;20191;-63
2022/07/01 08:10:06;;;;;;;1135.37;999.90;;;26.30;99.90;;;;;;5014550;28;20669;-64
2022/07/01 08:12:31;;;;;;;1146.27;999.90;;;26.30;99.90;;;;;;5025920;28;20554;-65
2022/07/01 08:14:57;;;;;;;1117.87;999.90;;;26.00;99.90;;;;;;5015702;28;20768;-65
2022/07/01 08:17:22;;;;;;;1137.47;999.90;;;25.60;99.90;;;;;;5017147;28;20177;-66
2022/07/01 08:19:49;;;;;;;1131.93;999.90;;;25.70;99.90;;;;;;5026187;28;20846;-65
2022/07/01 08:22:14;;;;;;;1148.47;999.90;;;25.80;99.90;;;;;;5016314;28;20197;-65
2022/07/01 08:24:39;;;;;;;1153.10;999.90;;;26.00;99.90;;;;;;5021377;28;20209;-64
2022/07/01 08:27:05;;;;;;;1144.13;999.90;;;26.20;99.90;;;;;;5020468;28;20219;-64
2022/07/01 08:29:30;;;;;;;1162.60;999.90;;;26.40;99.90;;;;;;5025292;28;20204;-65
2022/07/01 08:31:56;;;;;;;1152.60;999.90;;;26.50;99.90;;;;;;5018955;28;20783;-65
2022/07/01 08:34:21;;;;;;;1162.30;999.90;;;26.50;99.90;;;;;;5025250;28;20197;-65
2022/07/01 08:36:47;;;;;;;1139.13;999.90;;;26.40;99.90;;;;;;5020012;28;20201;-64
2022/07/01 08:39:12;;;;;;;1159.67;999.90;;;26.40;99.90;;;;;;5019045;28;20284;-62
2022/07/01 08:41:40;;;;;;;1135.40;999.90;;;26.40;99.90;;;;;;5017397;28;20272;-64
2022/07/01 08:44:06;;;;;;;1125.47;999.90;;;26.50;99.90;;;;;;5027668;28;20195;-65
2022/07/01 08:46:33;;;;;;;1131.77;999.90;;;26.60;99.90;;;;;;5009355;28;20223;-63
2022/07/01 08:48:58;;;;;;;1167.07;999.90;;;27.00;99.90;;;;;;5027236;28;20233;-65
2022/07/01 08:51:24;;;;;;;1171.20;999.90;;;27.10;99.90;;;;;;5012956;28;20299;-65
2022/07/01 08:53:49;;;;;;;1175.93;999.90;;;27.50;99.90;;;;;;5020746;28;20401;-65
2022/07/01 08:58:59;;;;;;;1175.83;999.90;;;28.20;99.90;;;;;;5006401;28;20200;-65
2022/07/01 09:01:25;;;;;;;1175.07;999.90;;;28.40;99.90;;;;;;5012161;28;20202;-65
2022/07/01 09:04:12;;;;;;;1147.23;999.90;;;27.30;99.90;;;;;;5027211;28;20618;-65
2022/07/01 09:06:37;;;;;;;1148.40;999.90;;;26.90;99.90;;;;;;5011526;28;20217;-65
2022/07/01 09:09:17;;;;;;;1151.57;999.90;;;27.10;99.90;;;;;;5024796;28;20201;-64
2022/07/01 09:11:54;;;;;;;1163.63;999.90;;;27.10;99.90;;;;;;5011970;28;20205;-66
2022/07/01 09:14:29;;;;;;;1159.00;999.90;;;26.60;99.90;;;;;;5008979;28;20650;-65
2022/07/01 09:16:57;;;;;;;1136.30;999.90;;;26.00;99.90;;;;;;5016662;28;20200;-66
2022/07/01 09:19:23;;;;;;;1107.40;999.90;;;25.50;99.90;;;;;;5027082;28;20662;-65
2022/07/01 09:21:56;;;;;;;1120.17;999.90;;;25.00;99.90;;;;;;5023255;28;20214;-76
2022/07/01 09:24:43;;;;;;;1103.23;999.90;;;24.60;99.90;;;;;;5026809;28;20198;-67
2022/07/01 09:27:13;;;;;;;1082.70;988.47;;;24.40;99.90;;;;;;5016209;28;20277;-68
2022/07/01 09:29:44;;;;;;;1038.27;945.60;;;23.30;99.90;;;;;;5026515;28;20226;-68
2022/07/01 09:32:16;;;;;;;1013.83;921.57;;;23.00;99.90;;;;;;5016082;28;20250;-75
2022/07/01 09:34:44;;;;;;;982.63;891.33;;;22.10;99.90;;;;;;5009385;28;20192;-76
2022/07/01 09:37:14;;;;;;;986.40;895.27;;;21.40;99.90;;;;;;5020363;28;20207;-73
2022/07/01 09:39:47;;;;;;;977.37;886.20;;;21.40;99.90;;;;;;5024108;28;20206;-78
2022/07/01 09:42:14;;;;;;;947.90;858.00;;;21.10;99.90;;;;;;5012642;28;20219;-74
2022/07/01 09:44:59;;;;;;;941.00;850.93;;;20.70;99.90;;;;;;5023323;28;20209;-72
2022/07/01 09:47:26;;;;;;;930.13;840.07;;;20.40;99.90;;;;;;5015865;28;20229;-74
2022/07/01 09:49:52;;;;;;;917.43;827.53;;;20.00;99.90;;;;;;5026472;28;20234;-76
2022/07/01 09:52:19;;;;;;;929.63;839.37;;;20.20;99.90;;;;;;5015394;28;20755;-73
2022/07/01 09:54:49;;;;;;;921.90;831.80;;;20.20;99.90;;;;;;5026132;28;20580;-73
2022/07/01 09:57:15;;;;;;;892.97;804.13;;;20.10;99.90;;;;;;5017478;28;20250;-72
2022/07/01 09:59:40;;;;;;;899.93;810.90;;;20.00;99.90;;;;;;5022947;28;20250;-73
2022/07/01 10:02:08;;;;;;;931.57;841.90;;;19.90;99.90;;;;;;5015201;28;20681;-73
2022/07/01 10:04:36;;;;;;;964.10;870.80;;;19.90;99.90;;;;;;5015273;28;20381;-74
2022/07/01 10:07:50;;;;;;;958.23;864.80;;;20.00;99.90;;;;;;5025988;28;20210;-72
2022/07/01 10:10:22;;;;;;;930.53;838.90;;;20.10;99.90;;;;;;5021572;28;20206;-71
2022/07/01 10:12:53;;;;;;;890.10;800.90;;;19.80;99.90;;;;;;4994451;28;20273;-72
2022/07/01 10:15:20;;;;;;;934.27;843.67;;;19.80;99.90;;;;;;5009153;28;20211;-75
2022/07/01 10:17:48;;;;;;;905.03;815.80;;;19.90;99.90;;;;;;5024770;28;20718;-73
2022/07/01 10:20:16;;;;;;;917.10;827.70;;;19.80;99.90;;;;;;5009888;28;20209;-76
2022/07/01 10:29:36;;;;;;;952.37;859.00;;;20.00;99.90;;;;;;4995715;28;20216;-72
2022/07/01 10:32:13;;;;;;;972.27;878.23;;;19.70;99.90;;;;;;5023492;28;20204;-71
2022/07/01 10:34:40;;;;;;;948.57;854.83;;;19.50;99.90;;;;;;5019439;28;20300;-78
2022/07/01 10:37:09;;;;;;;963.93;869.97;;;19.50;99.90;;;;;;5016814;28;20189;-73
2022/07/01 10:39:53;;;;;;;945.97;852.43;;;19.50;99.90;;;;;;5025693;28;20207;-73
2022/07/01 10:42:18;;;;;;;932.43;839.33;;;19.10;99.90;;;;;;5001838;28;20246;-72
2022/07/01 10:45:03;;;;;;;929.70;835.80;;;19.00;99.90;;;;;;5021280;28;20248;-71
2022/07/01 10:47:29;;;;;;;888.20;798.97;;;19.10;99.90;;;;;;5016192;28;20184;-72
2022/07/01 10:50:18;;;;;;;906.50;814.67;;;19.30;99.90;;;;;;5023477;28;20208;-71
2022/07/01 10:53:03;;;;;;;893.60;803.90;;;19.10;99.90;;;;;;5009532;28;20203;-73
2022/07/01 10:55:40;;;;;;;886.40;797.20;;;18.90;99.90;;;;;;5013815;28;20243;-74
2022/07/01 10:58:06;;;;;;;872.40;783.20;;;18.70;99.90;;;;;;5017693;28;20187;-75
2022/07/01 11:00:35;;;;;;;897.00;806.83;;;18.80;99.90;;;;;;5015216;28;20211;-75
2022/07/01 11:03:16;;;;;;;893.97;803.93;;;18.90;99.90;;;;;;5010102;28;20710;-74
2022/07/01 11:05:43;;;;;;;851.80;763.93;;;18.60;99.90;;;;;;5005631;28;21022;-74
2022/07/01 11:08:09;;;;;;;869.67;780.67;;;18.50;99.90;;;;;;5006142;28;20286;-74
2022/07/01 11:10:35;;;;;;;836.67;749.00;;;18.20;99.90;;;;;;5005967;28;20360;-70
2022/07/01 11:13:01;;;;;;;856.40;767.93;;;18.30;99.90;;;;;;5023373;28;20211;-72
2022/07/01 11:15:30;;;;;;;865.93;777.90;;;18.30;99.90;;;;;;5016502;28;20268;-75
2022/07/01 11:17:57;;;;;;;829.67;742.13;;;18.20;99.90;;;;;;5005204;28;20189;-75
2022/07/01 11:20:24;;;;;;;854.10;766.27;;;18.10;99.90;;;;;;5013359;28;20221;-73
2022/07/01 11:22:50;;;;;;;853.83;765.47;;;17.90;99.90;;;;;;5015880;28;20211;-76
2022/07/01 11:25:18;;;;;;;844.43;756.33;;;17.80;99.90;;;;;;5021785;28;20237;-72
2022/07/01 11:27:48;;;;;;;813.90;726.57;;;17.50;99.90;;;;;;5025213;28;20774;-73
2022/07/01 11:30:15;;;;;;;826.27;739.07;;;17.40;99.90;;;;;;5014359;28;20294;-73
2022/07/01 11:32:44;;;;;;;810.70;723.60;;;17.40;99.90;;;;;;5016187;28;20215;-74
2022/07/01 11:40:57;;;;;;;785.70;699.50;;;17.10;99.90;;;;;;5016807;28;20257;-73
2022/07/01 11:43:28;;;;;;;775.03;684.87;;;17.10;99.90;;;;;;5028994;28;20681;-71
2022/07/01 11:45:54;;;;;;;820.57;733.47;;;17.10;99.90;;;;;;5020580;28;20261;-71
2022/07/01 11:48:37;;;;;;;812.73;725.20;;;17.30;99.90;;;;;;5028518;28;20566;-72
2022/07/01 11:51:09;;;;;;;815.83;728.43;;;17.40;99.90;;;;;;5012910;28;20208;-71
2022/07/01 11:53:35;;;;;;;808.10;721.83;;;17.50;99.90;;;;;;5023029;28;20693;-71
2022/07/01 11:56:01;;;;;;;804.23;718.00;;;17.90;99.90;;;;;;5018746;28;20756;-72
2022/07/01 11:58:42;;;;;;;824.53;737.17;;;18.20;99.90;;;;;;5029327;28;20327;-69
2022/07/01 12:01:08;;;;;;;821.40;734.00;;;18.20;99.90;;;;;;5012743;28;20204;-70
2022/07/01 12:03:34;;;;;;;790.27;704.07;;;18.30;99.90;;;;;;5028311;28;20208;-70
2022/07/01 12:06:00;;;;;;;798.43;712.13;;;17.80;99.90;;;;;;5015034;28;20508;-71
2022/07/01 12:08:26;;;;;;;806.60;719.83;;;17.80;99.90;;;;;;5028946;28;20191;-70
2022/07/01 12:10:51;;;;;;;817.80;731.13;;;17.90;99.90;;;;;;5014867;28;20692;-70
2022/07/01 12:13:21;;;;;;;816.23;729.90;;;17.70;99.90;;;;;;5028272;28;20203;-71
2022/07/01 12:15:47;;;;;;;819.20;732.60;;;17.70;99.90;;;;;;5020764;28;20203;-70
2022/07/01 12:18:15;;;;;;;817.77;730.97;;;17.60;99.90;;;;;;5028219;28;20294;-70
2022/07/01 12:20:47;;;;;;;834.40;747.33;;;17.80;99.90;;;;;;5020503;28;20210;-71
2022/07/01 12:23:13;;;;;;;816.03;728.80;;;18.10;99.90;;;;;;5014934;28;20235;-72